Time;durP1;ratioP1;P1;durP2;ratioP2;P2;SDS_P1;SDS_P2;PMS_P1;PMS_P2;Temp;Humidity;BMP_temperature;BMP_pressure;BME280_temperature;BME280_humidity;BME280_pressure;Samples;Min_cycle;Max_cycle;Signal;HPM_P1;HPM_P2
2022/09/28 00:00:17;;;;;;;19.83;11.10;;;;;;;6.89;100.00;99756.47;7390554;19;20419;-63
2022/09/28 00:02:47;;;;;;;20.13;11.93;;;;;;;6.87;100.00;99755.53;7388949;19;20428;-62
2022/09/28 00:05:17;;;;;;;25.13;14.20;;;;;;;6.73;100.00;99736.16;7392048;19;20898;-59
2022/09/28 00:07:46;;;;;;;17.83;11.07;;;;;;;6.70;100.00;99736.00;7389457;19;20436;-62
2022/09/28 00:10:15;;;;;;;18.70;11.37;;;;;;;6.84;100.00;99742.59;7390451;19;20450;-58
2022/09/28 00:12:47;;;;;;;16.60;11.10;;;;;;;6.82;100.00;99730.53;7389529;19;20417;-60
2022/09/28 00:15:17;;;;;;;19.67;11.07;;;;;;;6.68;100.00;99717.13;7391750;19;20386;-61
2022/09/28 00:17:47;;;;;;;16.80;10.23;;;;;;;6.65;100.00;99723.00;7389004;19;20418;-60
2022/09/28 00:20:16;;;;;;;17.77;10.87;;;;;;;6.67;100.00;99730.78;7389737;19;20453;-62
2022/09/28 00:22:46;;;;;;;23.80;10.73;;;;;;;6.69;100.00;99731.69;7388696;19;20455;-62
2022/09/28 00:25:16;;;;;;;15.90;11.03;;;;;;;6.66;100.00;99727.31;7391513;19;20386;-60
2022/09/28 00:27:51;;;;;;;18.10;11.40;;;;;;;6.62;100.00;99717.78;7390502;19;20437;-60
2022/09/28 00:30:20;;;;;;;15.90;10.50;;;;;;;6.64;100.00;99720.38;7396971;19;20734;-58
2022/09/28 00:32:50;;;;;;;18.97;11.00;;;;;;;6.56;100.00;99718.38;7395750;19;20405;-61
2022/09/28 00:35:19;;;;;;;16.07;10.13;;;;;;;6.51;100.00;99704.50;7398416;19;20385;-61
2022/09/28 00:37:51;;;;;;;15.63;10.47;;;;;;;6.43;100.00;99691.38;7395713;19;20420;-61
2022/09/28 00:40:20;;;;;;;18.57;11.90;;;;;;;6.45;100.00;99683.72;7396846;19;20426;-60
2022/09/28 00:42:52;;;;;;;17.23;11.00;;;;;;;6.47;100.00;99692.38;7395688;19;20416;-62
2022/09/28 00:45:23;;;;;;;21.70;11.07;;;;;;;6.44;100.00;99684.56;7398225;19;20951;-57
2022/09/28 00:47:56;;;;;;;17.60;11.80;;;;;;;6.40;100.00;99680.13;7393313;19;20432;-57
2022/09/28 00:50:29;;;;;;;19.10;11.93;;;;;;;6.37;100.00;99680.00;7396352;19;20410;-56
2022/09/28 00:53:02;;;;;;;23.37;12.87;;;;;;;6.31;100.00;99666.09;7395432;19;20424;-59
2022/09/28 00:55:36;;;;;;;27.03;12.43;;;;;;;6.26;100.00;99653.94;7398152;19;20377;-57
2022/09/28 00:58:10;;;;;;;23.60;13.17;;;;;;;6.18;100.00;99641.69;7397631;19;20444;-59
2022/09/28 01:00:41;;;;;;;21.03;12.57;;;;;;;6.20;100.00;99639.16;7393344;19;20484;-60
2022/09/28 01:03:13;;;;;;;22.40;13.30;;;;;;;6.20;100.00;99651.97;7397002;19;20461;-59
2022/09/28 01:05:42;;;;;;;22.57;12.87;;;;;;;6.18;100.00;99653.59;7394742;19;20935;-64
2022/09/28 01:08:13;;;;;;;20.63;13.80;;;;;;;6.16;100.00;99656.09;7395380;19;20391;-59
2022/09/28 01:10:42;;;;;;;20.77;14.20;;;;;;;6.20;100.00;99652.88;7392713;19;20413;-58
2022/09/28 01:13:15;;;;;;;21.50;13.43;;;;;;;6.19;100.00;99661.38;7396942;19;20405;-58
2022/09/28 01:15:51;;;;;;;20.30;13.60;;;;;;;6.17;100.00;99663.00;7395432;19;20426;-56
2022/09/28 01:18:24;;;;;;;20.33;12.70;;;;;;;6.14;100.00;99657.72;7396794;19;20398;-58
2022/09/28 01:20:58;;;;;;;26.47;14.40;;;;;;;6.14;100.00;99661.97;7392778;19;20437;-59
2022/09/28 01:23:50;;;;;;;26.77;14.10;;;;;;;6.10;100.00;99658.41;7396525;19;20396;-61
2022/09/28 01:27:07;;;;;;;21.93;14.00;;;;;;;6.00;100.00;99656.25;7395746;19;20759;-59
2022/09/28 01:29:48;;;;;;;20.33;14.10;;;;;;;6.03;100.00;99652.16;7393079;19;20951;-56
2022/09/28 01:32:32;;;;;;;21.67;13.73;;;;;;;6.03;100.00;99657.28;7393544;19;20768;-63
2022/09/28 01:35:05;;;;;;;21.90;13.90;;;;;;;6.04;100.00;99660.69;7399757;19;20393;-61
2022/09/28 01:37:38;;;;;;;22.63;14.53;;;;;;;6.00;100.00;99675.03;7394300;19;20407;-60
2022/09/28 01:40:09;;;;;;;24.20;13.23;;;;;;;5.97;100.00;99668.91;7395250;19;20410;-59
2022/09/28 01:42:40;;;;;;;24.73;14.47;;;;;;;5.92;100.00;99661.03;7394015;19;20398;-57
2022/09/28 01:45:18;;;;;;;21.40;13.60;;;;;;;5.88;100.00;99659.13;7396182;19;20404;-62
2022/09/28 01:47:48;;;;;;;23.90;14.70;;;;;;;5.83;100.00;99665.75;7392807;19;20440;-56
2022/09/28 01:50:21;;;;;;;20.47;13.60;;;;;;;5.80;100.00;99652.00;7394708;19;20440;-61
2022/09/28 01:52:54;;;;;;;20.93;13.90;;;;;;;5.76;100.00;99639.91;7393189;19;20431;-60
2022/09/28 01:55:30;;;;;;;21.93;14.17;;;;;;;5.74;100.00;99636.38;7396017;19;20424;-61
2022/09/28 01:58:03;;;;;;;22.93;13.50;;;;;;;5.75;100.00;99638.13;7392662;19;20408;-61
2022/09/28 02:00:36;;;;;;;20.97;12.93;;;;;;;5.74;100.00;99635.53;7395535;19;20428;-57
2022/09/28 02:03:09;;;;;;;20.70;13.53;;;;;;;5.72;100.00;99632.88;7394804;19;20417;-56
2022/09/28 02:05:41;;;;;;;24.63;14.33;;;;;;;5.73;100.00;99638.88;7392917;19;20424;-61
2022/09/28 02:08:12;;;;;;;21.23;13.20;;;;;;;5.73;100.00;99626.06;7393846;19;20382;-59
2022/09/28 02:10:44;;;;;;;19.13;13.20;;;;;;;5.75;100.00;99627.88;7391168;19;20430;-60
2022/09/28 02:13:16;;;;;;;19.97;13.80;;;;;;;5.70;100.00;99629.41;7394847;19;20426;-57
2022/09/28 02:15:53;;;;;;;20.13;13.57;;;;;;;5.65;100.00;99626.63;7392791;19;20382;-59
2022/09/28 02:18:22;;;;;;;21.57;13.70;;;;;;;5.64;100.00;99618.91;7395213;19;20390;-58
2022/09/28 02:20:57;;;;;;;20.40;13.70;;;;;;;5.62;100.00;99628.16;7390253;19;20400;-58
2022/09/28 02:23:28;;;;;;;25.27;15.33;;;;;;;5.60;100.00;99620.44;7394951;19;20411;-61
2022/09/28 02:26:02;;;;;;;23.10;13.97;;;;;;;5.59;100.00;99611.00;7392502;19;20440;-59
2022/09/28 02:28:32;;;;;;;24.13;15.83;;;;;;;5.60;100.00;99611.88;7393690;19;20412;-59
2022/09/28 02:31:04;;;;;;;20.53;14.20;;;;;;;5.62;100.00;99613.69;7389779;19;20783;-56
2022/09/28 02:33:37;;;;;;;25.47;14.20;;;;;;;5.60;100.00;99611.88;7394763;19;20385;-63
2022/09/28 02:36:08;;;;;;;23.70;13.57;;;;;;;5.58;100.00;99608.38;7391313;19;20412;-60
2022/09/28 02:38:38;;;;;;;21.67;12.50;;;;;;;5.56;100.00;99610.00;7394845;19;20389;-58
2022/09/28 02:41:12;;;;;;;21.87;12.50;;;;;;;5.53;100.00;99601.38;7390128;19;20403;-61
2022/09/28 02:43:51;;;;;;;17.53;11.60;;;;;;;5.51;100.00;99597.88;7394519;19;20383;-62
2022/09/28 02:46:29;;;;;;;19.70;12.83;;;;;;;5.51;100.00;99607.22;7391677;19;20932;-59
2022/09/28 02:49:07;;;;;;;20.83;13.17;;;;;;;5.51;100.00;99603.00;7392948;19;20399;-62
2022/09/28 02:52:17;;;;;;;19.83;12.27;;;;;;;5.51;100.00;99592.78;7391417;19;20410;-59
2022/09/28 02:55:14;;;;;;;19.73;12.67;;;;;;;5.57;100.00;99604.06;7394600;19;20416;-58
2022/09/28 02:57:54;;;;;;;23.33;12.67;;;;;;;5.77;100.00;99610.03;7390593;19;20994;-58
2022/09/28 03:00:24;;;;;;;23.20;13.20;;;;;;;5.81;100.00;99610.22;7392388;19;20937;-59
2022/09/28 03:03:03;;;;;;;23.67;14.77;;;;;;;5.99;100.00;99606.69;7390579;19;20407;-60
2022/09/28 03:05:37;;;;;;;32.80;14.40;;;;;;;6.01;100.00;99605.06;7393781;19;20413;-61
2022/09/28 03:08:12;;;;;;;23.37;15.00;;;;;;;5.88;100.00;99585.78;7392581;19;20452;-61
2022/09/28 03:10:44;;;;;;;20.23;13.93;;;;;;;5.83;100.00;99582.16;7389694;19;20407;-60
2022/09/28 03:13:15;;;;;;;21.40;13.67;;;;;;;5.65;100.00;99577.13;7392817;19;20401;-61
2022/09/28 03:15:45;;;;;;;26.73;13.87;;;;;;;5.50;100.00;99567.97;7391627;19;20486;-62
2022/09/28 03:18:20;;;;;;;16.60;11.70;;;;;;;5.52;100.00;99574.03;7393088;19;20919;-60
2022/09/28 03:20:49;;;;;;;18.83;12.63;;;;;;;5.58;100.00;99580.25;7388834;19;20933;-60
2022/09/28 03:23:18;;;;;;;26.83;13.30;;;;;;;5.70;100.00;99578.22;7392667;19;20397;-61
2022/09/28 03:25:53;;;;;;;21.50;12.80;;;;;;;5.63;100.00;99577.06;7393005;19;20413;-59
2022/09/28 03:28:23;;;;;;;19.17;12.77;;;;;;;5.58;100.00;99567.44;7392439;19;20457;-59
2022/09/28 03:30:52;;;;;;;20.93;12.80;;;;;;;5.73;100.00;99574.88;7392389;19;20442;-59
2022/09/28 03:33:24;;;;;;;23.83;13.50;;;;;;;5.76;100.00;99555.44;7396537;19;20415;-57
2022/09/28 03:35:54;;;;;;;24.47;13.80;;;;;;;6.04;100.00;99548.03;7390282;19;20385;-60
2022/09/28 03:38:23;;;;;;;22.53;13.90;;;;;;;6.16;100.00;99539.97;7392804;19;20497;-56
2022/09/28 03:40:57;;;;;;;26.03;13.57;;;;;;;5.89;100.00;99507.31;7389023;19;20421;-61
2022/09/28 03:43:27;;;;;;;23.83;13.37;;;;;;;5.50;100.00;99477.56;7392847;19;20413;-58
2022/09/28 03:45:58;;;;;;;25.33;13.00;;;;;;;5.38;100.00;99467.66;7390430;19;20428;-62
2022/09/28 03:48:32;;;;;;;18.40;12.40;;;;;;;5.36;100.00;99474.41;7392086;19;20394;-63
2022/09/28 03:51:03;;;;;;;19.83;12.53;;;;;;;5.34;100.00;99491.38;7388008;19;20400;-58
2022/09/28 03:53:34;;;;;;;20.40;11.67;;;;;;;5.32;100.00;99490.47;7392456;19;20413;-57
2022/09/28 03:56:04;;;;;;;21.20;12.37;;;;;;;5.32;100.00;99493.03;7390119;19;20454;-57
2022/09/28 03:58:34;;;;;;;20.13;11.40;;;;;;;5.33;100.00;99493.06;7397019;19;20810;-61
2022/09/28 04:01:05;;;;;;;16.50;11.87;;;;;;;5.30;100.00;99497.16;7387332;19;20408;-60
2022/09/28 04:03:37;;;;;;;19.87;12.10;;;;;;;5.26;100.00;99497.06;7398888;19;20388;-57
2022/09/28 04:06:06;;;;;;;18.77;11.73;;;;;;;5.24;100.00;99503.75;7396095;19;20407;-59
2022/09/28 04:08:36;;;;;;;22.23;12.30;;;;;;;5.24;100.00;99531.91;7398742;19;20419;-64
2022/09/28 04:11:06;;;;;;;20.10;12.00;;;;;;;5.20;100.00;99507.03;7393741;19;21007;-56
2022/09/28 04:13:35;;;;;;;16.70;11.57;;;;;;;5.22;100.00;99507.94;7399816;19;20399;-59
2022/09/28 04:16:05;;;;;;;19.30;12.40;;;;;;;5.31;100.00;99517.72;7396259;19;20962;-62
2022/09/28 04:18:37;;;;;;;17.73;10.53;;;;;;;5.44;100.00;99519.09;7399337;19;20736;-58
2022/09/28 04:21:08;;;;;;;20.60;11.87;;;;;;;5.49;100.00;99517.59;7393083;19;20420;-59
2022/09/28 04:23:40;;;;;;;22.60;13.20;;;;;;;5.86;100.00;99522.53;7399196;19;20398;-61
2022/09/28 04:26:15;;;;;;;21.53;12.63;;;;;;;5.67;100.00;99501.28;7396105;19;20973;-60
2022/09/28 04:31:40;;;;;;;19.10;12.33;;;;;;;5.55;100.00;99481.19;7393784;19;20428;-62
2022/09/28 04:34:13;;;;;;;17.63;12.50;;;;;;;5.70;100.00;99477.50;7399036;19;20400;-59
2022/09/28 04:36:42;;;;;;;20.10;12.40;;;;;;;5.65;100.00;99467.09;7395710;19;20750;-55
2022/09/28 04:39:12;;;;;;;20.87;12.53;;;;;;;5.33;100.00;99449.56;7397686;19;20397;-56
2022/09/28 04:41:43;;;;;;;20.23;11.90;;;;;;;5.19;100.00;99446.47;7395373;19;20539;-63
2022/09/28 04:44:12;;;;;;;22.83;13.33;;;;;;;5.19;100.00;99449.03;7398559;19;20413;-54
2022/09/28 04:46:41;;;;;;;22.57;12.70;;;;;;;5.14;100.00;99458.16;7395738;19;20940;-58
2022/09/28 04:49:14;;;;;;;21.70;10.97;;;;;;;5.09;100.00;99462.22;7396094;19;20387;-61
2022/09/28 04:51:43;;;;;;;19.13;11.63;;;;;;;5.05;100.00;99467.97;7395725;19;20961;-58
2022/09/28 04:54:13;;;;;;;20.27;11.10;;;;;;;5.03;100.00;99469.59;7398145;19;20381;-62
2022/09/28 04:56:42;;;;;;;20.37;11.30;;;;;;;5.04;100.00;99487.59;7395191;19;20979;-57
2022/09/28 04:59:12;;;;;;;20.00;11.80;;;;;;;5.14;100.00;99484.59;7396866;19;20919;-56
2022/09/28 05:01:41;;;;;;;18.70;11.20;;;;;;;5.31;100.00;99491.25;7395039;19;20470;-61
2022/09/28 05:04:13;;;;;;;21.53;12.47;;;;;;;5.39;100.00;99475.41;7397846;19;20391;-57
2022/09/28 05:06:43;;;;;;;20.67;11.77;;;;;;;5.26;100.00;99461.25;7394461;19;20411;-61
2022/09/28 05:09:12;;;;;;;20.27;12.47;;;;;;;5.07;100.00;99451.91;7395757;19;20377;-58
2022/09/28 05:11:41;;;;;;;20.50;12.53;;;;;;;5.00;100.00;99461.00;7394784;19;20935;-58
2022/09/28 05:14:12;;;;;;;18.40;11.10;;;;;;;5.18;100.00;99439.56;7396709;19;20396;-59
2022/09/28 05:16:42;;;;;;;29.10;11.33;;;;;;;5.35;100.00;99447.09;7394761;19;20412;-58
2022/09/28 05:19:14;;;;;;;36.10;13.00;;;;;;;5.10;100.00;99423.94;7396405;19;20478;-63
2022/09/28 05:21:47;;;;;;;42.33;13.70;;;;;;;5.09;100.00;99414.47;7395066;19;20966;-56
2022/09/28 05:24:17;;;;;;;27.27;12.57;;;;;;;5.05;100.00;99422.84;7397258;19;20392;-62
2022/09/28 05:26:46;;;;;;;34.57;11.37;;;;;;;5.00;100.00;99415.00;7394443;19;20437;-60
2022/09/28 05:29:15;;;;;;;31.33;11.97;;;;;;;5.17;100.00;99417.38;7394679;19;20389;-62
2022/09/28 05:31:45;;;;;;;86.23;14.30;;;;;;;5.22;100.00;99418.44;7393884;19;20970;-59
2022/09/28 05:34:17;;;;;;;16.83;11.10;;;;;;;5.00;100.00;99402.22;7397597;19;20398;-62
2022/09/28 05:36:47;;;;;;;19.20;11.03;;;;;;;5.09;100.00;99404.25;7397371;19;20443;-62
2022/09/28 05:39:16;;;;;;;22.17;10.37;;;;;;;5.32;100.00;99411.16;7395304;19;20410;-55
2022/09/28 05:41:46;;;;;;;17.90;11.30;;;;;;;5.39;100.00;99408.06;7393627;19;20492;-63
2022/09/28 05:44:15;;;;;;;18.33;11.83;;;;;;;5.39;100.00;99401.22;7396470;19;20388;-59
2022/09/28 05:46:45;;;;;;;26.33;12.63;;;;;;;5.25;100.00;99393.00;7393954;19;20727;-57
2022/09/28 05:49:17;;;;;;;17.37;10.70;;;;;;;5.40;100.00;99404.69;7394541;19;20415;-60
2022/09/28 05:51:46;;;;;;;19.80;11.70;;;;;;;5.30;100.00;99400.88;7393588;19;20814;-57
2022/09/28 05:54:15;;;;;;;17.07;11.47;;;;;;;5.32;100.00;99406.06;7395954;19;20391;-59
2022/09/28 05:56:45;;;;;;;16.37;10.70;;;;;;;5.61;100.00;99424.25;7394052;19;20398;-60
2022/09/28 05:59:15;;;;;;;18.43;10.83;;;;;;;5.81;100.00;99431.03;7394918;19;20387;-58
2022/09/28 06:01:44;;;;;;;27.90;16.00;;;;;;;5.73;100.00;99409.41;7392902;19;20409;-60
2022/09/28 06:04:17;;;;;;;26.63;15.07;;;;;;;5.54;100.00;99403.53;7395622;19;20389;-60
2022/09/28 06:06:47;;;;;;;25.07;14.77;;;;;;;5.43;100.00;99399.66;7393433;19;20980;-63
2022/09/28 06:09:16;;;;;;;31.73;16.67;;;;;;;5.34;100.00;99401.88;7394137;19;20413;-62
2022/09/28 06:11:47;;;;;;;27.23;15.30;;;;;;;5.36;100.00;99421.59;7392947;19;20413;-60
2022/09/28 06:14:16;;;;;;;31.63;15.60;;;;;;;5.42;100.00;99446.53;7395504;19;20380;-59
2022/09/28 06:16:46;;;;;;;30.70;17.57;;;;;;;5.44;100.00;99451.72;7392533;19;20964;-61
2022/09/28 06:19:18;;;;;;;32.57;17.43;;;;;;;5.50;100.00;99468.19;7394240;19;20680;-63
2022/09/28 06:21:49;;;;;;;40.73;18.20;;;;;;;5.50;100.00;99472.44;7392046;19;20425;-64
2022/09/28 06:24:18;;;;;;;33.80;17.40;;;;;;;5.54;100.00;99485.41;7393746;19;20390;-63
2022/09/28 06:26:47;;;;;;;39.60;19.80;;;;;;;5.59;100.00;99493.28;7392560;19;20421;-57
2022/09/28 06:29:18;;;;;;;35.63;19.27;;;;;;;5.54;100.00;99485.41;7393344;19;20762;-58
2022/09/28 06:31:48;;;;;;;48.67;20.80;;;;;;;5.59;100.00;99493.28;7391829;19;20432;-55
2022/09/28 06:34:20;;;;;;;48.07;22.43;;;;;;;5.67;100.00;99506.41;7394777;19;20388;-58
2022/09/28 06:36:50;;;;;;;58.93;22.93;;;;;;;5.65;100.00;99498.66;7391374;19;20409;-60
2022/09/28 06:39:19;;;;;;;43.47;20.33;;;;;;;5.65;100.00;99493.53;7394898;19;20382;-59
2022/09/28 06:41:49;;;;;;;48.93;23.30;;;;;;;5.71;100.00;99500.63;7391122;19;20397;-57
2022/09/28 06:44:18;;;;;;;44.40;22.67;;;;;;;5.70;100.00;99496.31;7395924;19;20383;-55
2022/09/28 06:46:48;;;;;;;54.50;25.13;;;;;;;5.62;100.00;99484.84;7392969;19;20444;-59
2022/09/28 06:49:20;;;;;;;56.67;24.37;;;;;;;5.60;100.00;99496.72;7391203;19;21207;-59
2022/09/28 06:51:49;;;;;;;51.80;24.20;;;;;;;5.51;100.00;99495.53;7392423;19;20435;-62
2022/09/28 06:54:19;;;;;;;51.87;23.40;;;;;;;5.60;100.00;99496.72;7393166;19;20408;-62
2022/09/28 06:56:48;;;;;;;56.13;24.80;;;;;;;5.58;100.00;99495.81;7391130;19;21025;-59
2022/09/28 06:59:17;;;;;;;66.40;29.60;;;;;;;5.74;100.00;99515.22;7393749;19;20399;-57
2022/09/28 07:01:47;;;;;;;56.53;25.37;;;;;;;5.81;100.00;99525.75;7390171;19;20442;-52
2022/09/28 07:04:16;;;;;;;59.30;26.53;;;;;;;5.84;100.00;99529.28;7393550;19;20409;-56
2022/09/28 07:06:51;;;;;;;52.67;26.03;;;;;;;5.64;100.00;99504.59;7390572;19;20473;-60
2022/09/28 07:09:20;;;;;;;51.47;23.67;;;;;;;5.69;100.00;99502.22;7392161;19;20395;-58
2022/09/28 07:12:03;;;;;;;52.10;23.90;;;;;;;5.64;100.00;99491.78;7391139;19;20397;-57
2022/09/28 07:14:34;;;;;;;55.80;25.60;;;;;;;5.73;100.00;99509.22;7393372;19;20388;-62
2022/09/28 07:17:16;;;;;;;54.93;25.50;;;;;;;5.82;100.00;99508.72;7392915;19;20532;-58
2022/09/28 07:19:46;;;;;;;50.70;25.60;;;;;;;5.92;100.00;99533.91;7396347;19;20421;-58
2022/09/28 07:22:18;;;;;;;57.33;26.03;;;;;;;6.04;100.00;99553.16;7389654;19;20549;-59
2022/09/28 07:24:59;;;;;;;59.53;27.03;;;;;;;6.08;100.00;99578.97;7393272;19;20393;-63
2022/09/28 07:27:29;;;;;;;58.47;27.43;;;;;;;5.80;100.00;99533.41;7389574;19;20440;-56
2022/09/28 07:29:58;;;;;;;68.20;33.70;;;;;;;5.88;100.00;99520.88;7391436;19;20440;-58
2022/09/28 07:32:30;;;;;;;77.00;34.97;;;;;;;6.14;100.00;99542.47;7388963;19;20431;-61
2022/09/28 07:35:19;;;;;;;65.30;30.23;;;;;;;6.13;100.00;99542.41;7390672;19;20362;-63
2022/09/28 07:37:59;;;;;;;53.83;26.30;;;;;;;6.15;100.00;99562.16;7397298;19;20439;-58
2022/09/28 07:43:19;;;;;;;50.07;23.60;;;;;;;6.66;100.00;99541.91;7396496;19;20423;-58
2022/09/28 07:45:49;;;;;;;56.33;27.07;;;;;;;6.85;100.00;99561.41;7398229;19;20380;-61
2022/09/28 07:48:19;;;;;;;54.00;26.50;;;;;;;6.56;100.00;99523.59;7399789;19;20391;-59
2022/09/28 07:50:50;;;;;;;47.27;25.50;;;;;;;6.37;100.00;99501.53;7397222;19;20419;-63
2022/09/28 07:53:23;;;;;;;47.70;24.90;;;;;;;6.28;100.00;99473.88;7399419;19;20393;-59
2022/09/28 07:55:53;;;;;;;45.93;23.37;;;;;;;6.46;100.00;99501.00;7397365;19;20390;-60
2022/09/28 07:58:23;;;;;;;49.73;24.57;;;;;;;6.74;100.00;99507.16;7399822;19;20390;-62
2022/09/28 08:00:53;;;;;;;43.87;24.20;;;;;;;6.77;100.00;99489.31;7395078;19;20771;-58
2022/09/28 08:03:23;;;;;;;47.00;23.33;;;;;;;6.60;100.00;99458.84;7399159;19;20785;-62
2022/09/28 08:05:53;;;;;;;44.83;22.03;;;;;;;6.66;100.00;99447.06;7396990;19;20415;-60
2022/09/28 08:08:25;;;;;;;42.33;23.67;;;;;;;6.70;100.00;99451.47;7399090;19;20414;-59
2022/09/28 08:10:55;;;;;;;43.33;22.30;;;;;;;6.67;100.00;99469.31;7394575;19;20449;-60
2022/09/28 08:13:46;;;;;;;40.40;23.37;;;;;;;6.61;100.00;99459.69;7396549;19;20383;-59
2022/09/28 08:16:15;;;;;;;46.57;24.60;;;;;;;6.48;100.00;99441.28;7396083;19;20410;-60
2022/09/28 08:18:45;;;;;;;47.23;24.07;;;;;;;6.43;100.00;99388.13;7399305;19;20390;-60
2022/09/28 08:23:59;;;;;;;39.57;21.10;;;;;;;6.41;100.00;99357.34;7398043;19;20432;-59
2022/09/28 08:26:28;;;;;;;44.97;20.93;;;;;;;6.52;100.00;99320.97;7396044;19;20411;-59
2022/09/28 08:28:58;;;;;;;38.10;21.47;;;;;;;6.56;100.00;99305.75;7398052;19;20394;-62
2022/09/28 08:31:27;;;;;;;33.93;19.13;;;;;;;6.58;100.00;99259.69;7389889;19;20401;-62
2022/09/28 08:33:56;;;;;;;44.23;22.73;;;;;;;6.74;100.00;99274.78;7395582;19;20770;-61
2022/09/28 08:36:27;;;;;;;37.20;20.03;;;;;;;6.92;100.00;99300.97;7395097;19;20446;-61
2022/09/28 08:38:59;;;;;;;44.20;19.17;;;;;;;6.95;100.00;99275.41;7398680;19;20389;-53
2022/09/28 08:41:35;;;;;;;34.80;18.00;;;;;;;6.80;100.00;99243.34;7391985;19;20411;-58
2022/09/28 08:44:14;;;;;;;35.00;18.80;;;;;;;7.13;100.00;99270.03;7398366;19;20383;-61
2022/09/28 08:46:46;;;;;;;41.37;19.93;;;;;;;7.20;100.00;99286.47;7395290;19;20407;-58
2022/09/28 08:49:19;;;;;;;38.73;20.77;;;;;;;7.16;100.00;99291.50;7395626;19;20392;-58
2022/09/28 08:51:58;;;;;;;38.43;20.00;;;;;;;7.13;100.00;99288.84;7395451;19;20938;-60
2022/09/28 08:54:37;;;;;;;40.57;20.63;;;;;;;7.15;100.00;99278.63;7397695;19;20913;-57
2022/09/28 08:57:10;;;;;;;36.93;20.43;;;;;;;7.23;100.00;99304.53;7394650;19;20414;-59
2022/09/28 08:59:48;;;;;;;35.73;20.17;;;;;;;7.35;100.00;99335.72;7396385;19;20403;-57
2022/09/28 09:02:21;;;;;;;34.17;18.10;;;;;;;6.99;100.00;99293.50;7394118;19;20415;-54
2022/09/28 09:04:51;;;;;;;34.63;17.53;;;;;;;7.02;100.00;99195.28;7397790;19;20383;-62
2022/09/28 09:07:33;;;;;;;35.07;18.63;;;;;;;7.08;100.00;99200.59;7394518;19;20408;-62
2022/09/28 09:10:13;;;;;;;36.83;19.97;;;;;;;7.34;100.00;99254.41;7395378;19;20415;-60
2022/09/28 09:12:48;;;;;;;38.67;18.77;;;;;;;7.24;100.00;99208.78;7394192;19;20457;-59
2022/09/28 09:15:36;;;;;;;35.43;17.90;;;;;;;7.21;100.00;99176.22;7400695;19;20390;-60
2022/09/28 09:18:16;;;;;;;36.37;18.73;;;;;;;7.41;100.00;99196.47;7400317;19;20455;-62
2022/09/28 09:20:51;;;;;;;33.33;18.30;;;;;;;7.35;100.00;99166.38;7395748;19;20434;-57
2022/09/28 09:23:21;;;;;;;33.17;18.10;;;;;;;7.48;100.00;99164.16;7400263;19;20760;-59
2022/09/28 09:25:59;;;;;;;35.90;17.90;;;;;;;7.72;100.00;99201.59;7397814;19;20404;-59
2022/09/28 09:29:03;;;;;;;36.53;18.90;;;;;;;7.89;100.00;99212.38;7400186;19;20396;-57
2022/09/28 09:31:43;;;;;;;40.50;19.73;;;;;;;7.79;100.00;99129.09;7394011;19;20439;-57
2022/09/28 09:34:26;;;;;;;42.00;23.70;;;;;;;7.80;100.00;99116.25;7400480;19;20846;-56
2022/09/28 09:37:10;;;;;;;28.90;16.43;;;;;;;7.79;100.00;99095.69;7396556;19;20423;-61
2022/09/28 09:39:50;;;;;;;28.30;15.23;;;;;;;7.83;100.00;99066.69;7399456;19;20419;-59
2022/09/28 09:42:35;;;;;;;29.10;15.97;;;;;;;7.95;100.00;98997.66;7396532;19;20443;-58
2022/09/28 09:45:14;;;;;;;25.10;14.97;;;;;;;7.76;100.00;98934.75;7399662;19;20921;-56
2022/09/28 09:47:45;;;;;;;26.40;14.60;;;;;;;8.02;100.00;98947.31;7397398;19;20465;-63
2022/09/28 09:50:24;;;;;;;26.23;14.70;;;;;;;8.38;100.00;98924.97;7398170;19;20940;-61
2022/09/28 09:52:56;;;;;;;22.50;14.37;;;;;;;8.44;100.00;98894.25;7394963;19;20431;-59
2022/09/28 09:55:27;;;;;;;25.30;15.40;;;;;;;8.86;100.00;98873.66;7399701;19;20388;-62
2022/09/28 09:58:09;;;;;;;34.23;17.00;;;;;;;8.86;100.00;98874.53;7396362;19;20436;-63
2022/09/28 10:00:41;;;;;;;29.23;16.87;;;;;;;8.38;100.00;98845.31;7391955;19;20442;-58
2022/09/28 10:03:20;;;;;;;27.60;16.60;;;;;;;8.80;100.00;98845.25;7398736;19;20380;-59
2022/09/28 10:05:53;;;;;;;27.33;15.77;;;;;;;8.93;100.00;98866.94;7395520;19;20410;-60
2022/09/28 10:08:24;;;;;;;23.83;13.97;;;;;;;8.99;100.00;98837.06;7394989;19;20735;-60
2022/09/28 10:10:56;;;;;;;23.53;13.23;;;;;;;9.12;100.00;98816.69;7391038;19;20408;-57
2022/09/28 10:13:28;;;;;;;18.10;12.23;;;;;;;9.31;100.00;98787.81;7393464;19;20392;-61
2022/09/28 10:15:57;;;;;;;18.70;11.13;;;;;;;9.23;100.00;98771.38;7392735;19;20811;-62
2022/09/28 10:18:27;;;;;;;36.27;18.10;;;;;;;9.35;100.00;98764.69;7394811;19;20384;-56
2022/09/28 10:20:57;;;;;;;52.17;24.23;;;;;;;9.42;100.00;98745.91;7390114;19;20448;-61
2022/09/28 10:23:28;;;;;;;14.33;9.63;;;;;;;9.38;100.00;98744.16;7394696;19;20763;-60
2022/09/28 10:26:02;;;;;;;14.33;9.40;;;;;;;9.09;100.00;98742.00;7391632;19;20400;-59
2022/09/28 10:28:37;;;;;;;30.20;16.00;;;;;;;9.22;100.00;98735.34;7394910;19;20912;-55
2022/09/28 10:31:40;;;;;;;11.60;8.60;;;;;;;9.11;100.00;98737.75;7389558;19;20785;-56
2022/09/28 10:34:13;;;;;;;15.57;10.03;;;;;;;9.15;100.00;98739.53;7394606;19;20451;-53
2022/09/28 10:36:49;;;;;;;20.60;9.27;;;;;;;8.68;100.00;98743.94;7390586;19;20440;-56
2022/09/28 10:39:39;;;;;;;16.10;9.23;;;;;;;8.74;100.00;98733.75;7396508;19;20646;-59
2022/09/28 10:42:11;;;;;;;14.03;9.00;;;;;;;8.84;100.00;98742.50;7389919;19;20751;-57
2022/09/28 10:44:52;;;;;;;12.03;8.27;;;;;;;9.07;100.00;98741.13;7394664;19;20419;-56
2022/09/28 10:47:23;;;;;;;13.87;8.10;;;;;;;9.08;100.00;98742.84;7390721;19;20411;-58
2022/09/28 10:49:54;;;;;;;11.47;7.27;;;;;;;8.78;100.00;98745.81;7392905;19;20404;-56
2022/09/28 10:52:35;;;;;;;11.87;7.67;;;;;;;9.13;100.00;98736.09;7389624;19;20427;-55
2022/09/28 10:55:25;;;;;;;16.20;7.90;;;;;;;9.04;100.00;98741.94;7394140;19;20423;-63
2022/09/28 10:57:55;;;;;;;12.30;7.70;;;;;;;8.87;100.00;98739.09;7390613;19;20412;-58
2022/09/28 11:00:41;;;;;;;13.23;7.70;;;;;;;9.01;100.00;98745.34;7391947;19;21029;-60
2022/09/28 11:03:19;;;;;;;11.37;7.80;;;;;;;8.95;100.00;98742.66;7393101;19;20415;-57
2022/09/28 11:05:57;;;;;;;11.37;7.03;;;;;;;8.74;100.00;98738.91;7389436;19;20639;-58
2022/09/28 11:08:29;;;;;;;13.10;6.80;;;;;;;8.81;100.00;98733.88;7393287;19;20412;-58
2022/09/28 11:11:10;;;;;;;10.93;6.60;;;;;;;8.98;100.00;98724.69;7388391;19;20535;-59
2022/09/28 11:13:45;;;;;;;7.70;5.97;;;;;;;9.23;100.00;98732.78;7392437;19;20431;-54
2022/09/28 11:16:25;;;;;;;17.27;6.57;;;;;;;9.69;100.00;98742.00;7390176;19;20403;-59
2022/09/28 11:18:54;;;;;;;10.20;6.60;;;;;;;9.71;100.00;98745.47;7395695;19;20399;-56
2022/09/28 11:21:26;;;;;;;8.40;5.10;;;;;;;9.63;100.00;98765.09;7388340;19;20407;-56
2022/09/28 11:24:04;;;;;;;19.17;7.80;;;;;;;9.83;100.00;98794.56;7393302;19;20388;-65
2022/09/28 11:26:42;;;;;;;7.50;5.33;;;;;;;9.88;100.00;98810.06;7389615;19;20483;-61
2022/09/28 11:29:21;;;;;;;9.83;5.47;;;;;;;10.00;100.00;98825.69;7392774;19;20375;-60
2022/09/28 11:32:02;;;;;;;8.37;5.93;;;;;;;10.15;100.00;98854.22;7388215;19;20418;-59
2022/09/28 11:34:35;;;;;;;27.20;16.23;;;;;;;10.22;100.00;98908.44;7392638;19;20388;-56
2022/09/28 11:37:34;;;;;;;6.73;4.83;;;;;;;10.38;100.00;98961.09;7393448;19;20511;-63
2022/09/28 11:40:14;;;;;;;8.20;4.90;;;;;;;11.08;100.00;98984.34;7391360;19;20436;-64
2022/09/28 11:42:50;;;;;;;7.43;4.60;;;;;;;11.23;100.00;98995.66;7390221;19;20446;-55
2022/09/28 11:45:28;;;;;;;2.70;1.20;;;;;;;10.07;100.00;99074.00;7392629;19;20745;-56
2022/09/28 11:48:02;;;;;;;5.60;1.67;;;;;;;10.26;100.00;99129.28;7390161;19;20412;-52
2022/09/28 11:50:37;;;;;;;4.03;1.63;;;;;;;10.12;100.00;99174.59;7391757;19;20416;-61
2022/09/28 11:53:14;;;;;;;4.30;2.07;;;;;;;10.50;100.00;99173.53;7393258;19;20440;-56
2022/09/28 11:55:48;;;;;;;4.20;1.83;;;;;;;10.08;100.00;99209.75;7390157;19;20945;-49